Aviation Digital Data Service (ADDS)

Output produced by METARs form (0623 UTC 19 March 2019)
found at http://www.aviationweather.gov/metar/data/
 
Forecast for: KORF (NORFOLK , VA, US)
Text: KORF 190540Z 1906/2006 03008KT P6SM SKC
Forecast period: 0600 to 2200 UTC 19 March 2019
Forecast type: FROM: standard forecast or significant change
Winds: from the NNE (30 degrees) at 9 MPH (8 knots; 4.1 m/s)
Visibility: 6 or more miles 10+ km)
Clouds: clear skies
Weather: no significant weather forecast for this period
Text: FM192200 06006KT P6SM SKC
Forecast period: 2200 UTC 19 March 2019 to 0600 UTC 20 March 2019
Forecast type: FROM: standard forecast or significant change
Winds: from the ENE (60 degrees) at 7 MPH (6 knots; 3.1 m/s)
Visibility: 6 or more miles 10+ km)
Clouds: clear skies
Weather: no significant weather forecast for this period